sensor_id;sensor_type;location;lat;lon;timestamp;pressure;altitude;pressure_sealevel;temperature;humidity
818;BME280;391;51.052;6.954;2022-07-29T00:00:44;101026.34;;;22.01;44.63
818;BME280;391;51.052;6.954;2022-07-29T00:02:48;101026.31;;;22.03;44.64
818;BME280;391;51.052;6.954;2022-07-29T00:04:53;101016.69;;;21.94;44.56
818;BME280;391;51.052;6.954;2022-07-29T00:06:57;101017.59;;;21.95;44.98
818;BME280;391;51.052;6.954;2022-07-29T00:09:00;101022.91;;;21.95;45.26
818;BME280;391;51.052;6.954;2022-07-29T00:11:04;101021.09;;;21.95;45.18
818;BME280;391;51.052;6.954;2022-07-29T00:13:07;101025.56;;;21.95;45.42
818;BME280;391;51.052;6.954;2022-07-29T00:15:11;101016.69;;;21.94;46.10
818;BME280;391;51.052;6.954;2022-07-29T00:17:14;101010.50;;;21.92;46.04
818;BME280;391;51.052;6.954;2022-07-29T00:19:20;100999.94;;;21.88;46.07
818;BME280;391;51.052;6.954;2022-07-29T00:21:25;101001.72;;;21.87;46.23
818;BME280;391;51.052;6.954;2022-07-29T00:23:29;101008.78;;;21.87;46.38
818;BME280;391;51.052;6.954;2022-07-29T00:25:37;100999.19;;;21.77;46.48
818;BME280;391;51.052;6.954;2022-07-29T00:27:41;101000.06;;;21.79;46.73
818;BME280;391;51.052;6.954;2022-07-29T00:29:45;100996.50;;;21.80;46.16
818;BME280;391;51.052;6.954;2022-07-29T00:31:48;100987.59;;;21.84;46.42
818;BME280;391;51.052;6.954;2022-07-29T00:33:52;100988.47;;;21.84;46.50
818;BME280;391;51.052;6.954;2022-07-29T00:35:56;100984.97;;;21.82;46.35
818;BME280;391;51.052;6.954;2022-07-29T00:38:00;100989.41;;;21.82;46.28
818;BME280;391;51.052;6.954;2022-07-29T00:40:04;100976.13;;;21.80;47.18
818;BME280;391;51.052;6.954;2022-07-29T00:42:08;100979.72;;;21.78;46.90
818;BME280;391;51.052;6.954;2022-07-29T00:44:12;100975.28;;;21.77;47.00
818;BME280;391;51.052;6.954;2022-07-29T00:46:16;100973.56;;;21.76;47.36
818;BME280;391;51.052;6.954;2022-07-29T00:48:19;100969.09;;;21.79;47.49
818;BME280;391;51.052;6.954;2022-07-29T00:50:26;100961.22;;;21.70;47.69
818;BME280;391;51.052;6.954;2022-07-29T00:52:30;100972.63;;;21.77;47.37
818;BME280;391;51.052;6.954;2022-07-29T00:54:35;100966.44;;;21.78;47.65
818;BME280;391;51.052;6.954;2022-07-29T00:56:45;100968.16;;;21.80;47.64
818;BME280;391;51.052;6.954;2022-07-29T00:58:50;100966.44;;;21.79;47.43
818;BME280;391;51.052;6.954;2022-07-29T01:00:54;100972.00;;;21.58;48.49
818;BME280;391;51.052;6.954;2022-07-29T01:02:59;100961.63;;;21.38;48.30
818;BME280;391;51.052;6.954;2022-07-29T01:05:04;100878.19;;;20.87;49.07
818;BME280;391;51.052;6.954;2022-07-29T01:07:08;100954.56;;;21.37;49.16
818;BME280;391;51.052;6.954;2022-07-29T01:09:13;100950.97;;;21.43;49.08
818;BME280;391;51.052;6.954;2022-07-29T01:11:39;100949.19;;;21.42;48.84
818;BME280;391;51.052;6.954;2022-07-29T01:13:43;100952.69;;;21.47;48.68
818;BME280;391;51.052;6.954;2022-07-29T01:15:51;100901.75;;;21.18;49.26
818;BME280;391;51.052;6.954;2022-07-29T01:18:01;100947.34;;;21.48;48.79
818;BME280;391;51.052;6.954;2022-07-29T01:20:12;100948.28;;;21.46;48.93
818;BME280;391;51.052;6.954;2022-07-29T01:22:26;100943.78;;;21.51;49.47
818;BME280;391;51.052;6.954;2022-07-29T01:24:46;100938.66;;;21.37;49.33
818;BME280;391;51.052;6.954;2022-07-29T01:26:59;100895.03;;;20.83;50.08
818;BME280;391;51.052;6.954;2022-07-29T01:29:19;100945.25;;;20.98;50.63
818;BME280;391;51.052;6.954;2022-07-29T01:31:35;100946.13;;;20.99;50.98
818;BME280;391;51.052;6.954;2022-07-29T01:34:02;100942.50;;;21.07;51.22
818;BME280;391;51.052;6.954;2022-07-29T01:36:10;100931.06;;;21.02;50.92
818;BME280;391;51.052;6.954;2022-07-29T01:38:18;100922.22;;;21.00;51.01
818;BME280;391;51.052;6.954;2022-07-29T01:40:27;100931.84;;;21.15;51.31
818;BME280;391;51.052;6.954;2022-07-29T01:42:34;100920.34;;;21.13;50.70
818;BME280;391;51.052;6.954;2022-07-29T01:44:45;100924.78;;;21.14;51.24
818;BME280;391;51.052;6.954;2022-07-29T01:46:54;100927.44;;;21.14;50.98
818;BME280;391;51.052;6.954;2022-07-29T01:49:06;100923.03;;;21.08;51.03
818;BME280;391;51.052;6.954;2022-07-29T01:51:14;100917.94;;;20.89;51.72
818;BME280;391;51.052;6.954;2022-07-29T01:53:26;100926.03;;;20.75;52.04
818;BME280;391;51.052;6.954;2022-07-29T01:55:41;100880.41;;;20.44;52.50
818;BME280;391;51.052;6.954;2022-07-29T01:57:48;100927.81;;;20.76;52.00
818;BME280;391;51.052;6.954;2022-07-29T01:59:54;100929.53;;;20.79;52.04
818;BME280;391;51.052;6.954;2022-07-29T02:02:00;100929.53;;;20.80;51.53
818;BME280;391;51.052;6.954;2022-07-29T02:04:07;100933.91;;;20.81;51.37
818;BME280;391;51.052;6.954;2022-07-29T02:06:13;100928.72;;;20.74;51.19
818;BME280;391;51.052;6.954;2022-07-29T02:08:19;100920.75;;;20.74;51.20
818;BME280;391;51.052;6.954;2022-07-29T02:10:26;100925.16;;;20.76;51.63
818;BME280;391;51.052;6.954;2022-07-29T02:12:32;100931.28;;;20.81;51.66
818;BME280;391;51.052;6.954;2022-07-29T02:14:40;100932.13;;;20.86;51.69
818;BME280;391;51.052;6.954;2022-07-29T02:16:51;100923.22;;;20.92;51.39
818;BME280;391;51.052;6.954;2022-07-29T02:18:56;100918.72;;;20.97;51.23
818;BME280;391;51.052;6.954;2022-07-29T02:21:01;100918.72;;;20.97;51.45
818;BME280;391;51.052;6.954;2022-07-29T02:23:07;100906.41;;;20.94;51.09
818;BME280;391;51.052;6.954;2022-07-29T02:25:13;100916.00;;;21.03;51.47
818;BME280;391;51.052;6.954;2022-07-29T02:27:19;100916.13;;;20.94;51.77
818;BME280;391;51.052;6.954;2022-07-29T02:29:25;100909.94;;;20.93;52.27
818;BME280;391;51.052;6.954;2022-07-29T02:31:32;100867.84;;;20.63;52.24
818;BME280;391;51.052;6.954;2022-07-29T02:33:39;100920.53;;;20.93;52.02
818;BME280;391;51.052;6.954;2022-07-29T02:35:45;100917.88;;;20.93;52.47
818;BME280;391;51.052;6.954;2022-07-29T02:37:49;100917.91;;;20.92;52.32
818;BME280;391;51.052;6.954;2022-07-29T02:40:10;100910.06;;;20.81;52.66
818;BME280;391;51.052;6.954;2022-07-29T02:42:16;100918.91;;;20.83;52.60
818;BME280;391;51.052;6.954;2022-07-29T02:44:21;100914.44;;;20.84;53.02
818;BME280;391;51.052;6.954;2022-07-29T02:46:34;100873.28;;;20.51;52.39
818;BME280;391;51.052;6.954;2022-07-29T02:48:45;100919.84;;;20.76;52.26
818;BME280;391;51.052;6.954;2022-07-29T02:50:58;100924.25;;;20.74;52.32
818;BME280;391;51.052;6.954;2022-07-29T02:53:08;100926.06;;;20.74;52.16
818;BME280;391;51.052;6.954;2022-07-29T02:55:18;100926.94;;;20.73;52.45
818;BME280;391;51.052;6.954;2022-07-29T02:57:29;100933.19;;;20.67;52.85
818;BME280;391;51.052;6.954;2022-07-29T02:59:36;100944.66;;;20.65;52.88
818;BME280;391;51.052;6.954;2022-07-29T03:01:42;100951.78;;;20.63;53.14
818;BME280;391;51.052;6.954;2022-07-29T03:03:49;100958.91;;;20.57;53.42
818;BME280;391;51.052;6.954;2022-07-29T03:05:55;100963.31;;;20.55;54.70
818;BME280;391;51.052;6.954;2022-07-29T03:08:02;100959.78;;;20.56;54.75
818;BME280;391;51.052;6.954;2022-07-29T03:10:07;100958.03;;;20.54;54.99
818;BME280;391;51.052;6.954;2022-07-29T03:12:15;100960.69;;;20.54;54.64
818;BME280;391;51.052;6.954;2022-07-29T03:14:20;100959.78;;;20.56;53.84
818;BME280;391;51.052;6.954;2022-07-29T03:16:25;100945.75;;;20.42;53.52
818;BME280;391;51.052;6.954;2022-07-29T03:18:30;100961.66;;;20.44;53.34
818;BME280;391;51.052;6.954;2022-07-29T03:20:36;100963.41;;;20.45;52.98
818;BME280;391;51.052;6.954;2022-07-29T03:22:41;100967.84;;;20.40;52.46
818;BME280;391;51.052;6.954;2022-07-29T03:24:46;100970.56;;;20.32;52.36
818;BME280;391;51.052;6.954;2022-07-29T03:26:49;100982.06;;;20.28;52.40
818;BME280;391;51.052;6.954;2022-07-29T03:28:54;100977.66;;;20.27;52.01
818;BME280;391;51.052;6.954;2022-07-29T03:30:58;100977.66;;;20.24;52.19
818;BME280;391;51.052;6.954;2022-07-29T03:33:02;100972.38;;;20.17;52.10
818;BME280;391;51.052;6.954;2022-07-29T03:35:14;100980.34;;;20.14;52.13
818;BME280;391;51.052;6.954;2022-07-29T03:37:20;100979.44;;;20.18;52.18
818;BME280;391;51.052;6.954;2022-07-29T03:39:26;100980.34;;;20.20;52.65
818;BME280;391;51.052;6.954;2022-07-29T03:41:31;100975.03;;;20.17;52.43
818;BME280;391;51.052;6.954;2022-07-29T03:43:37;100924.09;;;19.80;52.24
818;BME280;391;51.052;6.954;2022-07-29T03:45:52;100972.47;;;20.09;51.81
818;BME280;391;51.052;6.954;2022-07-29T03:48:01;100972.53;;;19.97;51.64
818;BME280;391;51.052;6.954;2022-07-29T03:50:07;100970.81;;;19.90;51.55
818;BME280;391;51.052;6.954;2022-07-29T03:52:12;100976.09;;;19.88;51.32
818;BME280;391;51.052;6.954;2022-07-29T03:54:17;100968.13;;;19.91;51.37
818;BME280;391;51.052;6.954;2022-07-29T03:56:23;100976.06;;;19.94;51.15
818;BME280;391;51.052;6.954;2022-07-29T03:58:28;100971.63;;;19.99;50.88
818;BME280;391;51.052;6.954;2022-07-29T04:00:34;100957.59;;;19.85;51.09
818;BME280;391;51.052;6.954;2022-07-29T04:02:38;100979.59;;;19.92;51.09
818;BME280;391;51.052;6.954;2022-07-29T04:04:43;100976.97;;;19.89;51.03
818;BME280;391;51.052;6.954;2022-07-29T04:06:46;100979.66;;;19.84;51.19
818;BME280;391;51.052;6.954;2022-07-29T04:08:50;100982.31;;;19.81;51.39
818;BME280;391;51.052;6.954;2022-07-29T04:10:55;100979.66;;;19.80;51.26
818;BME280;391;51.052;6.954;2022-07-29T04:12:59;100992.91;;;19.80;51.06
818;BME280;391;51.052;6.954;2022-07-29T04:15:06;100987.63;;;19.78;51.05
818;BME280;391;51.052;6.954;2022-07-29T04:17:10;100984.13;;;19.72;51.01
818;BME280;391;51.052;6.954;2022-07-29T04:19:14;100981.50;;;19.69;51.22
818;BME280;391;51.052;6.954;2022-07-29T04:21:18;100978.84;;;19.67;51.64
818;BME280;391;51.052;6.954;2022-07-29T04:23:21;100986.81;;;19.64;51.42
818;BME280;391;51.052;6.954;2022-07-29T04:25:25;100981.53;;;19.53;51.27
818;BME280;391;51.052;6.954;2022-07-29T04:27:29;100980.72;;;19.42;51.81
818;BME280;391;51.052;6.954;2022-07-29T04:29:33;100978.94;;;19.41;52.23
818;BME280;391;51.052;6.954;2022-07-29T04:31:37;100965.72;;;19.44;52.02
818;BME280;391;51.052;6.954;2022-07-29T04:33:40;100977.16;;;19.43;52.16
818;BME280;391;51.052;6.954;2022-07-29T04:35:44;100979.81;;;19.43;52.08
818;BME280;391;51.052;6.954;2022-07-29T04:37:53;100982.47;;;19.43;52.27
818;BME280;391;51.052;6.954;2022-07-29T04:39:57;100981.59;;;19.44;52.36
818;BME280;391;51.052;6.954;2022-07-29T04:42:00;100977.16;;;19.48;52.03
818;BME280;391;51.052;6.954;2022-07-29T04:44:05;100976.28;;;19.47;52.64
818;BME280;391;51.052;6.954;2022-07-29T04:46:10;100969.19;;;19.57;52.01
818;BME280;391;51.052;6.954;2022-07-29T04:48:13;100971.84;;;19.62;51.82
818;BME280;391;51.052;6.954;2022-07-29T04:50:17;100974.44;;;19.66;51.69
818;BME280;391;51.052;6.954;2022-07-29T04:52:20;100981.47;;;19.70;51.55
818;BME280;391;51.052;6.954;2022-07-29T04:54:24;100974.44;;;19.71;51.11
818;BME280;391;51.052;6.954;2022-07-29T04:56:28;100977.06;;;19.71;51.18
818;BME280;391;51.052;6.954;2022-07-29T04:58:34;100977.94;;;19.77;51.29
818;BME280;391;51.052;6.954;2022-07-29T05:00:39;100984.97;;;19.80;50.97
818;BME280;391;51.052;6.954;2022-07-29T05:02:43;100984.13;;;19.73;50.97
818;BME280;391;51.052;6.954;2022-07-29T05:04:47;100981.47;;;19.78;51.02
818;BME280;391;51.052;6.954;2022-07-29T05:06:50;100990.28;;;19.78;50.85
818;BME280;391;51.052;6.954;2022-07-29T05:08:54;100990.28;;;19.78;51.03
818;BME280;391;51.052;6.954;2022-07-29T05:10:57;100989.38;;;19.81;51.11
818;BME280;391;51.052;6.954;2022-07-29T05:13:13;100999.06;;;19.79;50.99
818;BME280;391;51.052;6.954;2022-07-29T05:15:17;100999.94;;;19.85;51.26
818;BME280;391;51.052;6.954;2022-07-29T05:17:22;101002.56;;;19.90;51.14
818;BME280;391;51.052;6.954;2022-07-29T05:19:25;101006.09;;;19.90;50.63
818;BME280;391;51.052;6.954;2022-07-29T05:21:29;101008.75;;;19.90;50.70
818;BME280;391;51.052;6.954;2022-07-29T05:23:32;101014.91;;;19.89;50.83
818;BME280;391;51.052;6.954;2022-07-29T05:25:36;101012.25;;;19.92;50.95
818;BME280;391;51.052;6.954;2022-07-29T05:27:45;101007.84;;;19.91;50.98
818;BME280;391;51.052;6.954;2022-07-29T05:29:52;100915.47;;;19.44;50.77
818;BME280;391;51.052;6.954;2022-07-29T05:31:55;101010.47;;;19.94;50.72
818;BME280;391;51.052;6.954;2022-07-29T05:34:00;101010.47;;;19.94;51.32
818;BME280;391;51.052;6.954;2022-07-29T05:36:04;101013.16;;;19.90;50.94
818;BME280;391;51.052;6.954;2022-07-29T05:38:09;101008.72;;;19.92;50.82
818;BME280;391;51.052;6.954;2022-07-29T05:40:13;101005.19;;;19.93;51.08
818;BME280;391;51.052;6.954;2022-07-29T05:42:16;101011.34;;;19.96;50.78
818;BME280;391;51.052;6.954;2022-07-29T05:44:20;101006.03;;;19.99;50.58
818;BME280;391;51.052;6.954;2022-07-29T05:46:26;101005.09;;;20.10;50.58
818;BME280;391;51.052;6.954;2022-07-29T05:48:30;101016.56;;;20.07;50.59
818;BME280;391;51.052;6.954;2022-07-29T05:50:35;101012.16;;;20.12;50.63
818;BME280;391;51.052;6.954;2022-07-29T05:52:49;101006.88;;;20.07;50.55
818;BME280;391;51.052;6.954;2022-07-29T05:54:52;101009.56;;;20.03;50.69
818;BME280;391;51.052;6.954;2022-07-29T05:56:56;101020.13;;;20.06;50.68
818;BME280;391;51.052;6.954;2022-07-29T05:59:00;101025.38;;;20.15;50.84
818;BME280;391;51.052;6.954;2022-07-29T06:01:03;101030.63;;;20.26;50.50
818;BME280;391;51.052;6.954;2022-07-29T06:03:07;101042.09;;;20.22;50.17
818;BME280;391;51.052;6.954;2022-07-29T06:05:11;101045.63;;;20.21;50.83
818;BME280;391;51.052;6.954;2022-07-29T06:07:19;101053.56;;;20.27;50.34
818;BME280;391;51.052;6.954;2022-07-29T06:09:23;101052.69;;;20.29;50.47
818;BME280;391;51.052;6.954;2022-07-29T06:11:28;101038.56;;;20.21;50.26
818;BME280;391;51.052;6.954;2022-07-29T06:13:31;101049.16;;;20.21;50.39
818;BME280;391;51.052;6.954;2022-07-29T06:15:35;101057.03;;;20.36;51.37
818;BME280;391;51.052;6.954;2022-07-29T06:17:38;101063.03;;;20.66;51.60
818;BME280;391;51.052;6.954;2022-07-29T06:20:02;101064.78;;;20.70;50.09
818;BME280;391;51.052;6.954;2022-07-29T06:22:08;101064.91;;;20.53;49.51
818;BME280;391;51.052;6.954;2022-07-29T06:24:14;101069.34;;;20.48;50.54
818;BME280;391;51.052;6.954;2022-07-29T06:26:18;101078.06;;;20.62;50.92
818;BME280;391;51.052;6.954;2022-07-29T06:28:33;101073.47;;;20.90;52.18
818;BME280;391;51.052;6.954;2022-07-29T06:30:36;101038.25;;;20.76;50.52
818;BME280;391;51.052;6.954;2022-07-29T06:32:41;100967.72;;;20.56;50.29
818;BME280;391;51.052;6.954;2022-07-29T06:34:45;101065.41;;;21.02;48.70
818;BME280;391;51.052;6.954;2022-07-29T06:36:50;101072.50;;;21.01;49.30
818;BME280;391;51.052;6.954;2022-07-29T06:38:55;101069.84;;;21.00;49.58
818;BME280;391;51.052;6.954;2022-07-29T06:41:00;101078.69;;;20.97;50.02
818;BME280;391;51.052;6.954;2022-07-29T06:43:04;101082.28;;;20.90;49.01
818;BME280;391;51.052;6.954;2022-07-29T06:45:09;101088.56;;;20.79;49.24
818;BME280;391;51.052;6.954;2022-07-29T06:47:12;101089.56;;;20.64;49.65
818;BME280;391;51.052;6.954;2022-07-29T06:49:16;101081.56;;;20.69;50.31
818;BME280;391;51.052;6.954;2022-07-29T06:51:20;101080.59;;;20.82;50.75
818;BME280;391;51.052;6.954;2022-07-29T06:53:26;101076.19;;;20.79;50.36
818;BME280;391;51.052;6.954;2022-07-29T06:55:30;101013.56;;;20.66;50.98
818;BME280;391;51.052;6.954;2022-07-29T06:57:35;101064.44;;;21.18;49.59
818;BME280;391;51.052;6.954;2022-07-29T06:59:39;101066.03;;;21.33;50.46
818;BME280;391;51.052;6.954;2022-07-29T07:01:43;101065.94;;;21.42;50.19
818;BME280;391;51.052;6.954;2022-07-29T07:03:46;101071.19;;;21.48;50.06
818;BME280;391;51.052;6.954;2022-07-29T07:05:51;101066.75;;;21.50;49.94
818;BME280;391;51.052;6.954;2022-07-29T07:07:55;101081.06;;;21.34;48.21
818;BME280;391;51.052;6.954;2022-07-29T07:09:58;101072.47;;;21.09;49.37
818;BME280;391;51.052;6.954;2022-07-29T07:12:02;101038.94;;;20.97;49.97
818;BME280;391;51.052;6.954;2022-07-29T07:14:07;101077.75;;;21.03;50.46
818;BME280;391;51.052;6.954;2022-07-29T07:16:11;101088.50;;;20.89;50.03
818;BME280;391;51.052;6.954;2022-07-29T07:18:15;101078.78;;;20.87;51.14
818;BME280;391;51.052;6.954;2022-07-29T07:20:19;100992.59;;;20.37;52.57
818;BME280;391;51.052;6.954;2022-07-29T07:22:26;101061.00;;;21.01;52.88
818;BME280;391;51.052;6.954;2022-07-29T07:24:30;101059.16;;;21.06;53.02
818;BME280;391;51.052;6.954;2022-07-29T07:26:33;101069.88;;;20.95;53.86
818;BME280;391;51.052;6.954;2022-07-29T07:28:37;101073.38;;;21.02;54.38
818;BME280;391;51.052;6.954;2022-07-29T07:30:41;101075.38;;;20.73;54.72
818;BME280;391;51.052;6.954;2022-07-29T07:32:45;101074.63;;;20.52;56.13
818;BME280;391;51.052;6.954;2022-07-29T07:34:49;101086.00;;;20.65;56.94
818;BME280;391;51.052;6.954;2022-07-29T07:36:52;101081.56;;;20.70;55.48
818;BME280;391;51.052;6.954;2022-07-29T07:38:56;101085.91;;;20.79;56.11
818;BME280;391;51.052;6.954;2022-07-29T07:41:00;101089.47;;;20.75;56.02
818;BME280;391;51.052;6.954;2022-07-29T07:43:03;101084.25;;;20.63;57.22
818;BME280;391;51.052;6.954;2022-07-29T07:45:09;101081.56;;;20.70;57.81
818;BME280;391;51.052;6.954;2022-07-29T07:47:20;101061.16;;;20.83;58.14
818;BME280;391;51.052;6.954;2022-07-29T07:49:29;101060.09;;;21.03;57.35
818;BME280;391;51.052;6.954;2022-07-29T07:51:32;101058.16;;;21.27;56.58
818;BME280;391;51.052;6.954;2022-07-29T07:53:36;101059.84;;;21.34;58.02
818;BME280;391;51.052;6.954;2022-07-29T07:55:42;101055.66;;;21.04;58.94
818;BME280;391;51.052;6.954;2022-07-29T07:58:05;101079.00;;;20.58;59.93
818;BME280;391;51.052;6.954;2022-07-29T08:00:10;101082.72;;;20.18;60.64
818;BME280;391;51.052;6.954;2022-07-29T08:02:14;101083.72;;;19.92;61.56
818;BME280;391;51.052;6.954;2022-07-29T08:04:19;101080.97;;;20.11;62.01
818;BME280;391;51.052;6.954;2022-07-29T08:06:29;101076.56;;;20.16;60.71
818;BME280;391;51.052;6.954;2022-07-29T08:08:32;101085.38;;;20.18;60.91
818;BME280;391;51.052;6.954;2022-07-29T08:10:36;101079.16;;;20.26;60.82
818;BME280;391;51.052;6.954;2022-07-29T08:13:01;101072.97;;;20.33;60.58
818;BME280;391;51.052;6.954;2022-07-29T08:15:06;101073.84;;;20.35;61.29
818;BME280;391;51.052;6.954;2022-07-29T08:17:10;101080.91;;;20.33;61.16
818;BME280;391;51.052;6.954;2022-07-29T08:19:14;101067.66;;;20.38;61.47
818;BME280;391;51.052;6.954;2022-07-29T08:21:19;101069.28;;;20.55;61.04
818;BME280;391;51.052;6.954;2022-07-29T08:23:22;101054.16;;;20.71;60.80
818;BME280;391;51.052;6.954;2022-07-29T08:25:26;101063.81;;;20.78;60.91
818;BME280;391;51.052;6.954;2022-07-29T08:27:30;101064.56;;;20.97;60.24
818;BME280;391;51.052;6.954;2022-07-29T08:29:45;101068.94;;;21.04;60.40
818;BME280;391;51.052;6.954;2022-07-29T08:31:48;101067.06;;;21.18;59.91
818;BME280;391;51.052;6.954;2022-07-29T08:33:52;101071.44;;;21.24;60.14
818;BME280;391;51.052;6.954;2022-07-29T08:35:58;101059.81;;;21.37;59.51
818;BME280;391;51.052;6.954;2022-07-29T08:38:03;101060.56;;;21.48;59.36
818;BME280;391;51.052;6.954;2022-07-29T08:40:07;101061.56;;;21.39;59.55
818;BME280;391;51.052;6.954;2022-07-29T08:42:11;101067.84;;;21.31;59.80
818;BME280;391;51.052;6.954;2022-07-29T08:44:15;101062.66;;;21.17;59.91
818;BME280;391;51.052;6.954;2022-07-29T08:46:31;101065.44;;;20.97;60.75
818;BME280;391;51.052;6.954;2022-07-29T08:48:36;101058.41;;;20.95;61.64
818;BME280;391;51.052;6.954;2022-07-29T08:50:40;101062.78;;;20.97;61.69
818;BME280;391;51.052;6.954;2022-07-29T08:52:48;101069.00;;;20.95;62.04
818;BME280;391;51.052;6.954;2022-07-29T08:55:00;101062.03;;;20.86;61.52
818;BME280;391;51.052;6.954;2022-07-29T08:57:04;101053.09;;;20.95;61.43
818;BME280;391;51.052;6.954;2022-07-29T08:59:11;101055.72;;;20.99;61.60
818;BME280;391;51.052;6.954;2022-07-29T09:01:17;101050.50;;;20.87;62.33
818;BME280;391;51.052;6.954;2022-07-29T09:03:39;101056.69;;;20.88;61.76
818;BME280;391;51.052;6.954;2022-07-29T09:05:44;101053.09;;;20.93;62.15
818;BME280;391;51.052;6.954;2022-07-29T09:07:49;101055.75;;;20.95;61.88
818;BME280;391;51.052;6.954;2022-07-29T09:09:53;101058.44;;;20.87;62.85
818;BME280;391;51.052;6.954;2022-07-29T09:11:58;101062.91;;;20.85;62.45
818;BME280;391;51.052;6.954;2022-07-29T09:14:02;101063.84;;;20.75;62.77
818;BME280;391;51.052;6.954;2022-07-29T09:16:06;101027.84;;;20.48;63.01
818;BME280;391;51.052;6.954;2022-07-29T09:18:11;101071.75;;;20.81;62.77
818;BME280;391;51.052;6.954;2022-07-29T09:20:32;101070.03;;;20.80;62.58
818;BME280;391;51.052;6.954;2022-07-29T09:22:49;101070.94;;;20.76;63.39
818;BME280;391;51.052;6.954;2022-07-29T09:24:55;101072.75;;;20.70;63.35
818;BME280;391;51.052;6.954;2022-07-29T09:27:00;101071.06;;;20.58;64.13
818;BME280;391;51.052;6.954;2022-07-29T09:29:10;101066.53;;;20.72;63.94
818;BME280;391;51.052;6.954;2022-07-29T09:31:14;101071.75;;;20.83;63.59
818;BME280;391;51.052;6.954;2022-07-29T09:33:18;101065.53;;;20.90;63.24
818;BME280;391;51.052;6.954;2022-07-29T09:35:24;101068.25;;;20.78;63.13
818;BME280;391;51.052;6.954;2022-07-29T09:37:28;101071.91;;;20.60;63.15
818;BME280;391;51.052;6.954;2022-07-29T09:39:33;101077.22;;;20.60;62.94
818;BME280;391;51.052;6.954;2022-07-29T09:41:47;101023.56;;;20.25;63.37
818;BME280;391;51.052;6.954;2022-07-29T09:43:56;101070.19;;;20.54;63.27
818;BME280;391;51.052;6.954;2022-07-29T09:46:09;101072.91;;;20.48;63.25
818;BME280;391;51.052;6.954;2022-07-29T09:48:15;101063.09;;;20.61;63.32
818;BME280;391;51.052;6.954;2022-07-29T09:50:20;101059.53;;;20.64;63.97
818;BME280;391;51.052;6.954;2022-07-29T09:52:26;100998.78;;;20.36;64.72
818;BME280;391;51.052;6.954;2022-07-29T09:54:31;101063.84;;;20.80;64.78
818;BME280;391;51.052;6.954;2022-07-29T09:56:41;101067.34;;;20.82;64.34
818;BME280;391;51.052;6.954;2022-07-29T09:58:45;101070.00;;;20.79;64.86
818;BME280;391;51.052;6.954;2022-07-29T10:00:51;101068.28;;;20.75;64.57
818;BME280;391;51.052;6.954;2022-07-29T10:02:59;101073.56;;;20.79;64.54
818;BME280;391;51.052;6.954;2022-07-29T10:05:06;101075.28;;;20.82;64.57
818;BME280;391;51.052;6.954;2022-07-29T10:07:18;101078.91;;;20.72;64.46
818;BME280;391;51.052;6.954;2022-07-29T10:09:22;101083.34;;;20.70;65.22
818;BME280;391;51.052;6.954;2022-07-29T10:11:26;101084.22;;;20.70;65.60
818;BME280;391;51.052;6.954;2022-07-29T10:13:50;101085.16;;;20.58;65.04
818;BME280;391;51.052;6.954;2022-07-29T10:15:55;101084.25;;;20.67;64.68
818;BME280;391;51.052;6.954;2022-07-29T10:17:59;101080.72;;;20.67;64.42
818;BME280;391;51.052;6.954;2022-07-29T10:20:03;101083.25;;;20.83;65.22
818;BME280;391;51.052;6.954;2022-07-29T10:22:13;101087.59;;;20.92;64.61
818;BME280;391;51.052;6.954;2022-07-29T10:24:38;101026.03;;;20.52;64.56
818;BME280;391;51.052;6.954;2022-07-29T10:26:42;101077.84;;;20.95;63.57
818;BME280;391;51.052;6.954;2022-07-29T10:28:46;101080.50;;;20.95;64.07
818;BME280;391;51.052;6.954;2022-07-29T10:30:51;101084.91;;;20.93;64.02
818;BME280;391;51.052;6.954;2022-07-29T10:33:21;101028.50;;;20.75;63.82
818;BME280;391;51.052;6.954;2022-07-29T10:35:43;101039.13;;;20.75;63.90
818;BME280;391;51.052;6.954;2022-07-29T10:38:26;101077.72;;;21.06;63.31
818;BME280;391;51.052;6.954;2022-07-29T10:40:38;101079.50;;;21.07;62.76
818;BME280;391;51.052;6.954;2022-07-29T10:43:09;101081.28;;;21.09;63.16
818;BME280;391;51.052;6.954;2022-07-29T10:45:21;101091.00;;;21.07;62.93
818;BME280;391;51.052;6.954;2022-07-29T10:47:26;101092.78;;;21.12;63.34
818;BME280;391;51.052;6.954;2022-07-29T10:49:31;101090.84;;;21.30;62.48
818;BME280;391;51.052;6.954;2022-07-29T10:52:04;101083.59;;;21.44;61.30
818;BME280;391;51.052;6.954;2022-07-29T10:54:08;101065.88;;;21.49;60.24
818;BME280;391;51.052;6.954;2022-07-29T10:56:23;101070.97;;;21.69;59.98
818;BME280;391;51.052;6.954;2022-07-29T10:58:28;101073.56;;;21.75;59.36
818;BME280;391;51.052;6.954;2022-07-29T11:00:32;101088.47;;;21.84;59.97
818;BME280;391;51.052;6.954;2022-07-29T11:02:45;101078.66;;;21.93;58.71
818;BME280;391;51.052;6.954;2022-07-29T11:05:03;101071.47;;;22.03;58.06
818;BME280;391;51.052;6.954;2022-07-29T11:07:09;101082.72;;;22.23;58.25
818;BME280;391;51.052;6.954;2022-07-29T11:09:17;101083.38;;;22.39;56.61
818;BME280;391;51.052;6.954;2022-07-29T11:11:38;101076.66;;;22.76;56.13
818;BME280;391;51.052;6.954;2022-07-29T11:13:53;101072.00;;;22.89;55.67
818;BME280;391;51.052;6.954;2022-07-29T11:15:58;101067.47;;;22.95;55.60
818;BME280;391;51.052;6.954;2022-07-29T11:18:06;101067.16;;;23.13;54.78
818;BME280;391;51.052;6.954;2022-07-29T11:20:32;101036.09;;;23.14;52.91
818;BME280;391;51.052;6.954;2022-07-29T11:22:38;101063.03;;;23.48;51.08
818;BME280;391;51.052;6.954;2022-07-29T11:25:12;101074.22;;;23.65;50.39
818;BME280;391;51.052;6.954;2022-07-29T11:27:19;101075.28;;;23.56;50.19
818;BME280;391;51.052;6.954;2022-07-29T11:29:24;101082.50;;;23.51;50.28
818;BME280;391;51.052;6.954;2022-07-29T11:31:35;101079.59;;;23.62;50.11
818;BME280;391;51.052;6.954;2022-07-29T11:33:41;101077.56;;;23.76;49.45
818;BME280;391;51.052;6.954;2022-07-29T11:36:09;101076.41;;;23.89;49.19
818;BME280;391;51.052;6.954;2022-07-29T11:38:25;101070.09;;;23.93;49.23
818;BME280;391;51.052;6.954;2022-07-29T11:40:30;101068.19;;;24.00;48.09